Hlavní strana
METAR-TAF:

METAR-TAF

Letiště :

Letiště Peking

Peking, Čína

zeměpisná šířka: 39-56N, zeměpisná délka: 116-17E, výška: 55 m

Aktuální stav počasí

Zpráva byla vytvořena před 15 minutami, v 05:00 UTC
Jihozápadní vítr 6 kt, proměnlivý mezi jihojihovýchodním a severoseverozápadním
Teplota 36°C
Vlhkost vzduchu 18%
Tlak 1003 hPa
Viditelnost 10 km a více
Žádná oblačnost pod 1500 m, nevyskytují se cumulonimby.

METAR: ZBAA 200500Z 22003MPS 160V330 CAVOK 36/08 Q1003 NOSIG

Čas: 13:15 (05:15 UTC)

Předpověď počasí

Zpráva byla vytvořena před 7 hodinami a 45 minutami, v 21:30 UTC
Předpověď platná od 20 v 00 UTC do 20 v 24 UTC
Jihojihovýchodní vítr 8 kt
Viditelnost 10 km a více
Žádná oblačnost pod 1500 m, nevyskytují se cumulonimby.

TAF: ZBAA 192130Z 2000/2024 16004MPS CAVOK TX36/2007Z TN21/2021Z

Stav a předpovědi počasí z více než 4 000 letišť (zprávy METAR a TAF).

Červené a žluté tečky na mapě představují dostupné meteorologické stanice.

Když kurzor umístíte na tečku, zobrazí se název stanice.

Pak kliknutím zobrazíte stav a předpověď počasí.

Chcete-li změnit mapu, kliknutím na zelené tlačítko se znaménkem +mapu přiblížíte, kliknutím na zelené tlačítko se znaménkem – mapu oddálíte a kliknutím na zelené šipky přejdete na sousední mapy.


METAR-TAF: